sensor_id;sensor_type;location;lat;lon;timestamp;temperature;humidity
14057;DHT22;7103;54.300;10.180;2023-03-01T00:01:17;0.80;99.90
14057;DHT22;7103;54.300;10.180;2023-03-01T00:03:44;0.80;99.90
14057;DHT22;7103;54.300;10.180;2023-03-01T00:06:12;0.80;99.90
14057;DHT22;7103;54.300;10.180;2023-03-01T00:08:39;0.70;99.90
14057;DHT22;7103;54.300;10.180;2023-03-01T00:11:15;0.70;99.90
14057;DHT22;7103;54.300;10.180;2023-03-01T00:13:44;0.70;99.90
14057;DHT22;7103;54.300;10.180;2023-03-01T00:16:23;0.70;99.90
14057;DHT22;7103;54.300;10.180;2023-03-01T00:18:50;0.70;99.90
14057;DHT22;7103;54.300;10.180;2023-03-01T00:21:18;0.70;99.90
14057;DHT22;7103;54.300;10.180;2023-03-01T00:23:46;0.70;99.90
14057;DHT22;7103;54.300;10.180;2023-03-01T00:26:16;0.70;99.90
14057;DHT22;7103;54.300;10.180;2023-03-01T00:28:43;0.70;99.90
14057;DHT22;7103;54.300;10.180;2023-03-01T00:31:21;0.60;99.90
14057;DHT22;7103;54.300;10.180;2023-03-01T00:33:52;0.50;99.90
14057;DHT22;7103;54.300;10.180;2023-03-01T00:36:20;0.50;99.90
14057;DHT22;7103;54.300;10.180;2023-03-01T00:38:46;0.40;99.90
14057;DHT22;7103;54.300;10.180;2023-03-01T00:41:15;0.50;99.90
14057;DHT22;7103;54.300;10.180;2023-03-01T00:43:42;0.50;99.90
14057;DHT22;7103;54.300;10.180;2023-03-01T00:46:15;0.50;99.90
14057;DHT22;7103;54.300;10.180;2023-03-01T00:48:43;0.50;99.90
14057;DHT22;7103;54.300;10.180;2023-03-01T00:51:20;0.50;99.90
14057;DHT22;7103;54.300;10.180;2023-03-01T00:53:50;0.50;99.90
14057;DHT22;7103;54.300;10.180;2023-03-01T00:56:17;0.50;99.90
14057;DHT22;7103;54.300;10.180;2023-03-01T00:58:44;0.50;99.90
14057;DHT22;7103;54.300;10.180;2023-03-01T01:01:23;0.50;99.90
14057;DHT22;7103;54.300;10.180;2023-03-01T01:04:06;0.40;99.90
14057;DHT22;7103;54.300;10.180;2023-03-01T01:06:35;0.40;99.90
14057;DHT22;7103;54.300;10.180;2023-03-01T01:09:04;0.40;99.90
14057;DHT22;7103;54.300;10.180;2023-03-01T01:11:32;0.40;99.90
14057;DHT22;7103;54.300;10.180;2023-03-01T01:13:59;0.40;99.90
14057;DHT22;7103;54.300;10.180;2023-03-01T01:16:27;0.30;99.90
14057;DHT22;7103;54.300;10.180;2023-03-01T01:18:55;0.30;99.90
14057;DHT22;7103;54.300;10.180;2023-03-01T01:21:24;0.20;99.90
14057;DHT22;7103;54.300;10.180;2023-03-01T01:23:51;0.10;99.90
14057;DHT22;7103;54.300;10.180;2023-03-01T01:26:21;0.00;99.90
14057;DHT22;7103;54.300;10.180;2023-03-01T01:28:49;0.00;99.90
14057;DHT22;7103;54.300;10.180;2023-03-01T01:31:16;0.00;99.90
14057;DHT22;7103;54.300;10.180;2023-03-01T01:33:44;-0.10;99.90
14057;DHT22;7103;54.300;10.180;2023-03-01T01:36:11;-0.10;99.90
14057;DHT22;7103;54.300;10.180;2023-03-01T01:38:38;-0.10;99.90
14057;DHT22;7103;54.300;10.180;2023-03-01T01:41:06;-0.10;99.90
14057;DHT22;7103;54.300;10.180;2023-03-01T01:43:36;-0.10;99.90
14057;DHT22;7103;54.300;10.180;2023-03-01T01:49:05;-0.10;99.90
14057;DHT22;7103;54.300;10.180;2023-03-01T01:51:37;-0.10;99.90
14057;DHT22;7103;54.300;10.180;2023-03-01T01:54:12;-0.20;99.90
14057;DHT22;7103;54.300;10.180;2023-03-01T01:56:44;-0.20;99.90
14057;DHT22;7103;54.300;10.180;2023-03-01T01:59:14;-0.10;99.90
14057;DHT22;7103;54.300;10.180;2023-03-01T02:01:41;-0.20;99.90
14057;DHT22;7103;54.300;10.180;2023-03-01T02:04:09;-0.10;99.90
14057;DHT22;7103;54.300;10.180;2023-03-01T02:06:43;-0.10;99.90
14057;DHT22;7103;54.300;10.180;2023-03-01T02:09:13;-0.10;99.90
14057;DHT22;7103;54.300;10.180;2023-03-01T02:11:41;-0.10;99.90
14057;DHT22;7103;54.300;10.180;2023-03-01T02:14:09;-0.10;99.90
14057;DHT22;7103;54.300;10.180;2023-03-01T02:16:36;-0.10;99.90
14057;DHT22;7103;54.300;10.180;2023-03-01T02:19:05;-0.10;99.90
14057;DHT22;7103;54.300;10.180;2023-03-01T02:21:47;0.00;99.90
14057;DHT22;7103;54.300;10.180;2023-03-01T02:24:28;0.00;99.90
14057;DHT22;7103;54.300;10.180;2023-03-01T02:26:58;0.00;99.90
14057;DHT22;7103;54.300;10.180;2023-03-01T02:29:28;0.00;99.90
14057;DHT22;7103;54.300;10.180;2023-03-01T02:31:57;0.00;99.90
14057;DHT22;7103;54.300;10.180;2023-03-01T02:34:25;0.00;99.90
14057;DHT22;7103;54.300;10.180;2023-03-01T02:37:05;0.10;99.90
14057;DHT22;7103;54.300;10.180;2023-03-01T02:39:37;0.10;99.90
14057;DHT22;7103;54.300;10.180;2023-03-01T02:42:12;0.10;99.90
14057;DHT22;7103;54.300;10.180;2023-03-01T02:44:39;0.10;99.90
14057;DHT22;7103;54.300;10.180;2023-03-01T02:47:06;0.10;1.00
14057;DHT22;7103;54.300;10.180;2023-03-01T02:49:35;0.10;1.00
14057;DHT22;7103;54.300;10.180;2023-03-01T02:55:10;0.10;1.00
14057;DHT22;7103;54.300;10.180;2023-03-01T02:57:39;0.10;1.00
14057;DHT22;7103;54.300;10.180;2023-03-01T03:00:28;0.10;1.00
14057;DHT22;7103;54.300;10.180;2023-03-01T03:02:57;0.20;1.00
14057;DHT22;7103;54.300;10.180;2023-03-01T03:05:27;0.20;1.00
14057;DHT22;7103;54.300;10.180;2023-03-01T03:07:54;0.20;1.00
14057;DHT22;7103;54.300;10.180;2023-03-01T03:10:25;0.20;1.00
14057;DHT22;7103;54.300;10.180;2023-03-01T03:13:01;0.10;1.00
14057;DHT22;7103;54.300;10.180;2023-03-01T03:15:29;0.10;1.00
14057;DHT22;7103;54.300;10.180;2023-03-01T03:17:57;0.10;1.00
14057;DHT22;7103;54.300;10.180;2023-03-01T03:20:27;0.10;1.00
14057;DHT22;7103;54.300;10.180;2023-03-01T03:22:56;0.10;1.00
14057;DHT22;7103;54.300;10.180;2023-03-01T03:25:26;0.10;1.00
14057;DHT22;7103;54.300;10.180;2023-03-01T03:27:53;0.10;1.00
14057;DHT22;7103;54.300;10.180;2023-03-01T03:30:31;0.10;1.00
14057;DHT22;7103;54.300;10.180;2023-03-01T03:32:59;0.10;1.00
14057;DHT22;7103;54.300;10.180;2023-03-01T03:35:34;0.10;1.00
14057;DHT22;7103;54.300;10.180;2023-03-01T03:38:06;0.00;1.00
14057;DHT22;7103;54.300;10.180;2023-03-01T03:43:09;0.00;1.00
14057;DHT22;7103;54.300;10.180;2023-03-01T03:45:36;0.00;1.00
14057;DHT22;7103;54.300;10.180;2023-03-01T03:48:05;0.00;1.00
14057;DHT22;7103;54.300;10.180;2023-03-01T03:50:33;0.10;1.00
14057;DHT22;7103;54.300;10.180;2023-03-01T03:53:05;0.00;1.00
14057;DHT22;7103;54.300;10.180;2023-03-01T03:55:33;0.00;1.00
14057;DHT22;7103;54.300;10.180;2023-03-01T03:58:01;0.00;1.00
14057;DHT22;7103;54.300;10.180;2023-03-01T04:00:41;-0.10;1.00
14057;DHT22;7103;54.300;10.180;2023-03-01T04:03:10;-0.10;1.00
14057;DHT22;7103;54.300;10.180;2023-03-01T04:05:39;-0.10;1.00
14057;DHT22;7103;54.300;10.180;2023-03-01T04:08:07;-0.10;1.00
14057;DHT22;7103;54.300;10.180;2023-03-01T04:10:44;-0.10;1.00
14057;DHT22;7103;54.300;10.180;2023-03-01T04:13:13;-0.10;1.00
14057;DHT22;7103;54.300;10.180;2023-03-01T04:15:40;-0.10;1.00
14057;DHT22;7103;54.300;10.180;2023-03-01T04:18:12;-0.10;1.00
14057;DHT22;7103;54.300;10.180;2023-03-01T04:20:40;-0.10;1.00
14057;DHT22;7103;54.300;10.180;2023-03-01T04:23:10;-0.10;1.00
14057;DHT22;7103;54.300;10.180;2023-03-01T04:25:54;-0.10;1.00
14057;DHT22;7103;54.300;10.180;2023-03-01T04:28:35;-0.10;1.00
14057;DHT22;7103;54.300;10.180;2023-03-01T04:31:05;-0.10;1.00
14057;DHT22;7103;54.300;10.180;2023-03-01T04:33:51;-0.10;1.00
14057;DHT22;7103;54.300;10.180;2023-03-01T04:36:19;-0.10;1.00
14057;DHT22;7103;54.300;10.180;2023-03-01T04:38:47;-0.10;1.00
14057;DHT22;7103;54.300;10.180;2023-03-01T04:41:16;-0.10;1.00
14057;DHT22;7103;54.300;10.180;2023-03-01T04:43:44;-0.10;1.00
14057;DHT22;7103;54.300;10.180;2023-03-01T04:46:13;-0.10;1.00
14057;DHT22;7103;54.300;10.180;2023-03-01T04:48:43;-0.10;1.00
14057;DHT22;7103;54.300;10.180;2023-03-01T04:51:10;0.00;1.00
14057;DHT22;7103;54.300;10.180;2023-03-01T04:53:41;-0.10;1.00
14057;DHT22;7103;54.300;10.180;2023-03-01T04:56:09;0.00;1.00
14057;DHT22;7103;54.300;10.180;2023-03-01T04:58:36;0.00;1.00
14057;DHT22;7103;54.300;10.180;2023-03-01T05:01:12;0.10;1.00
14057;DHT22;7103;54.300;10.180;2023-03-01T05:03:50;-0.10;1.00
14057;DHT22;7103;54.300;10.180;2023-03-01T05:06:19;-0.10;1.00
14057;DHT22;7103;54.300;10.180;2023-03-01T05:08:46;-0.10;1.00
14057;DHT22;7103;54.300;10.180;2023-03-01T05:11:13;-0.10;1.00
14057;DHT22;7103;54.300;10.180;2023-03-01T05:13:41;0.00;1.00
14057;DHT22;7103;54.300;10.180;2023-03-01T05:16:08;0.00;1.00
14057;DHT22;7103;54.300;10.180;2023-03-01T05:18:40;-0.10;1.00
14057;DHT22;7103;54.300;10.180;2023-03-01T05:21:10;0.00;1.00
14057;DHT22;7103;54.300;10.180;2023-03-01T05:23:37;-0.10;1.00
14057;DHT22;7103;54.300;10.180;2023-03-01T05:26:05;-0.20;1.00
14057;DHT22;7103;54.300;10.180;2023-03-01T05:28:37;-0.20;1.00
14057;DHT22;7103;54.300;10.180;2023-03-01T05:31:04;-0.20;1.00
14057;DHT22;7103;54.300;10.180;2023-03-01T05:33:40;-0.20;1.00
14057;DHT22;7103;54.300;10.180;2023-03-01T05:36:08;-0.20;1.00
14057;DHT22;7103;54.300;10.180;2023-03-01T05:38:36;-0.30;1.00
14057;DHT22;7103;54.300;10.180;2023-03-01T05:41:03;-0.30;1.00
14057;DHT22;7103;54.300;10.180;2023-03-01T05:43:31;-0.30;1.00
14057;DHT22;7103;54.300;10.180;2023-03-01T05:46:00;-0.30;1.00
14057;DHT22;7103;54.300;10.180;2023-03-01T05:48:27;-0.20;1.00
14057;DHT22;7103;54.300;10.180;2023-03-01T05:50:54;-0.20;1.00
14057;DHT22;7103;54.300;10.180;2023-03-01T05:53:21;-0.20;1.00
14057;DHT22;7103;54.300;10.180;2023-03-01T05:55:48;-0.20;1.00
14057;DHT22;7103;54.300;10.180;2023-03-01T05:58:18;-0.20;1.00
14057;DHT22;7103;54.300;10.180;2023-03-01T06:00:47;-0.20;1.00
14057;DHT22;7103;54.300;10.180;2023-03-01T06:03:17;-0.20;1.00
14057;DHT22;7103;54.300;10.180;2023-03-01T06:05:44;-0.20;1.00
14057;DHT22;7103;54.300;10.180;2023-03-01T06:08:12;-0.20;1.00
14057;DHT22;7103;54.300;10.180;2023-03-01T06:10:39;-0.20;1.00
14057;DHT22;7103;54.300;10.180;2023-03-01T06:13:07;-0.20;1.00
14057;DHT22;7103;54.300;10.180;2023-03-01T06:15:34;-0.20;1.00
14057;DHT22;7103;54.300;10.180;2023-03-01T06:18:01;-0.20;1.00
14057;DHT22;7103;54.300;10.180;2023-03-01T06:20:28;-0.20;1.00
14057;DHT22;7103;54.300;10.180;2023-03-01T06:22:56;-0.20;1.00
14057;DHT22;7103;54.300;10.180;2023-03-01T06:25:25;-0.20;1.00
14057;DHT22;7103;54.300;10.180;2023-03-01T06:27:52;-0.20;1.00
14057;DHT22;7103;54.300;10.180;2023-03-01T06:30:21;-0.20;1.00
14057;DHT22;7103;54.300;10.180;2023-03-01T06:32:48;-0.20;1.00
14057;DHT22;7103;54.300;10.180;2023-03-01T06:35:16;-0.10;1.00
14057;DHT22;7103;54.300;10.180;2023-03-01T06:37:47;-0.10;1.00
14057;DHT22;7103;54.300;10.180;2023-03-01T06:40:15;-0.10;1.00
14057;DHT22;7103;54.300;10.180;2023-03-01T06:42:48;-0.10;1.00
14057;DHT22;7103;54.300;10.180;2023-03-01T06:45:19;0.00;1.00
14057;DHT22;7103;54.300;10.180;2023-03-01T06:47:46;0.00;1.00
14057;DHT22;7103;54.300;10.180;2023-03-01T06:50:14;0.00;1.00
14057;DHT22;7103;54.300;10.180;2023-03-01T06:52:41;0.00;1.00
14057;DHT22;7103;54.300;10.180;2023-03-01T06:55:11;0.00;1.00
14057;DHT22;7103;54.300;10.180;2023-03-01T06:57:38;0.00;1.00
14057;DHT22;7103;54.300;10.180;2023-03-01T07:00:05;0.00;1.00
14057;DHT22;7103;54.300;10.180;2023-03-01T07:02:32;0.10;1.00
14057;DHT22;7103;54.300;10.180;2023-03-01T07:04:59;0.20;1.00
14057;DHT22;7103;54.300;10.180;2023-03-01T07:07:26;0.20;1.00
14057;DHT22;7103;54.300;10.180;2023-03-01T07:09:53;0.30;1.00
14057;DHT22;7103;54.300;10.180;2023-03-01T07:12:20;0.30;1.00
14057;DHT22;7103;54.300;10.180;2023-03-01T07:14:47;0.30;1.00
14057;DHT22;7103;54.300;10.180;2023-03-01T07:17:14;0.30;1.00
14057;DHT22;7103;54.300;10.180;2023-03-01T07:19:41;0.30;1.00
14057;DHT22;7103;54.300;10.180;2023-03-01T07:22:08;0.30;1.00
14057;DHT22;7103;54.300;10.180;2023-03-01T07:24:36;0.40;1.00
14057;DHT22;7103;54.300;10.180;2023-03-01T07:27:03;0.50;1.00
14057;DHT22;7103;54.300;10.180;2023-03-01T07:29:29;0.60;1.00
14057;DHT22;7103;54.300;10.180;2023-03-01T07:31:56;0.70;1.00
14057;DHT22;7103;54.300;10.180;2023-03-01T07:34:23;0.70;1.00
14057;DHT22;7103;54.300;10.180;2023-03-01T07:36:50;0.80;1.00
14057;DHT22;7103;54.300;10.180;2023-03-01T07:39:17;0.80;1.00
14057;DHT22;7103;54.300;10.180;2023-03-01T07:41:45;0.80;1.00
14057;DHT22;7103;54.300;10.180;2023-03-01T07:44:12;1.00;1.00
14057;DHT22;7103;54.300;10.180;2023-03-01T07:46:39;1.00;1.00
14057;DHT22;7103;54.300;10.180;2023-03-01T07:49:06;1.10;1.00
14057;DHT22;7103;54.300;10.180;2023-03-01T07:51:33;1.20;1.00
14057;DHT22;7103;54.300;10.180;2023-03-01T07:54:00;1.30;1.00
14057;DHT22;7103;54.300;10.180;2023-03-01T07:56:27;1.30;1.00
14057;DHT22;7103;54.300;10.180;2023-03-01T07:58:53;1.40;1.00
14057;DHT22;7103;54.300;10.180;2023-03-01T08:01:21;1.40;1.00
14057;DHT22;7103;54.300;10.180;2023-03-01T08:03:48;1.50;1.00
14057;DHT22;7103;54.300;10.180;2023-03-01T08:06:16;1.50;1.00
14057;DHT22;7103;54.300;10.180;2023-03-01T08:08:45;1.60;1.00
14057;DHT22;7103;54.300;10.180;2023-03-01T08:11:13;1.70;1.00
14057;DHT22;7103;54.300;10.180;2023-03-01T08:13:41;1.90;1.00
14057;DHT22;7103;54.300;10.180;2023-03-01T08:16:11;1.80;1.00
14057;DHT22;7103;54.300;10.180;2023-03-01T08:18:38;1.90;1.00
14057;DHT22;7103;54.300;10.180;2023-03-01T08:21:07;2.00;1.00
14057;DHT22;7103;54.300;10.180;2023-03-01T08:23:37;2.10;1.00
14057;DHT22;7103;54.300;10.180;2023-03-01T08:26:08;2.20;1.00
14057;DHT22;7103;54.300;10.180;2023-03-01T08:28:36;2.20;1.00
14057;DHT22;7103;54.300;10.180;2023-03-01T08:31:13;2.20;1.00
14057;DHT22;7103;54.300;10.180;2023-03-01T08:33:40;2.20;1.00
14057;DHT22;7103;54.300;10.180;2023-03-01T08:36:07;2.30;1.00
14057;DHT22;7103;54.300;10.180;2023-03-01T08:38:34;2.40;1.00
14057;DHT22;7103;54.300;10.180;2023-03-01T08:41:03;2.50;1.00
14057;DHT22;7103;54.300;10.180;2023-03-01T08:43:30;2.50;1.00
14057;DHT22;7103;54.300;10.180;2023-03-01T08:45:57;2.50;1.00
14057;DHT22;7103;54.300;10.180;2023-03-01T08:48:24;2.50;1.00
14057;DHT22;7103;54.300;10.180;2023-03-01T08:50:51;2.50;99.90
14057;DHT22;7103;54.300;10.180;2023-03-01T08:53:18;2.40;99.90
14057;DHT22;7103;54.300;10.180;2023-03-01T08:55:45;2.40;99.90
14057;DHT22;7103;54.300;10.180;2023-03-01T08:58:12;2.50;99.90
14057;DHT22;7103;54.300;10.180;2023-03-01T09:00:39;2.50;99.90
14057;DHT22;7103;54.300;10.180;2023-03-01T09:03:06;2.70;99.90
14057;DHT22;7103;54.300;10.180;2023-03-01T09:05:33;2.60;99.90
14057;DHT22;7103;54.300;10.180;2023-03-01T09:08:00;2.60;99.90
14057;DHT22;7103;54.300;10.180;2023-03-01T09:10:27;2.60;99.90
14057;DHT22;7103;54.300;10.180;2023-03-01T09:12:54;2.50;99.90
14057;DHT22;7103;54.300;10.180;2023-03-01T09:15:21;2.50;99.90
14057;DHT22;7103;54.300;10.180;2023-03-01T09:17:48;2.50;99.90
14057;DHT22;7103;54.300;10.180;2023-03-01T09:20:15;2.50;99.90
14057;DHT22;7103;54.300;10.180;2023-03-01T09:22:42;2.70;99.90
14057;DHT22;7103;54.300;10.180;2023-03-01T09:25:09;2.70;99.90
14057;DHT22;7103;54.300;10.180;2023-03-01T09:27:36;2.70;99.90
14057;DHT22;7103;54.300;10.180;2023-03-01T09:30:03;2.70;99.90
14057;DHT22;7103;54.300;10.180;2023-03-01T09:32:31;2.50;99.90
14057;DHT22;7103;54.300;10.180;2023-03-01T09:34:58;2.60;99.90
14057;DHT22;7103;54.300;10.180;2023-03-01T09:37:34;2.70;99.90
14057;DHT22;7103;54.300;10.180;2023-03-01T09:40:03;2.80;99.90
14057;DHT22;7103;54.300;10.180;2023-03-01T09:42:34;2.80;99.90
14057;DHT22;7103;54.300;10.180;2023-03-01T09:45:06;2.90;99.90
14057;DHT22;7103;54.300;10.180;2023-03-01T09:47:35;3.00;99.90
14057;DHT22;7103;54.300;10.180;2023-03-01T09:50:16;3.00;99.90
14057;DHT22;7103;54.300;10.180;2023-03-01T09:53:12;3.20;99.90
14057;DHT22;7103;54.300;10.180;2023-03-01T09:55:48;3.50;99.90
14057;DHT22;7103;54.300;10.180;2023-03-01T10:09:57;3.60;99.90
14057;DHT22;7103;54.300;10.180;2023-03-01T10:12:30;3.70;99.90
14057;DHT22;7103;54.300;10.180;2023-03-01T10:17:51;3.60;99.90
14057;DHT22;7103;54.300;10.180;2023-03-01T10:20:33;3.80;99.90
14057;DHT22;7103;54.300;10.180;2023-03-01T10:23:04;3.80;99.90
14057;DHT22;7103;54.300;10.180;2023-03-01T10:25:36;3.90;99.90
14057;DHT22;7103;54.300;10.180;2023-03-01T10:28:17;3.80;99.90
14057;DHT22;7103;54.300;10.180;2023-03-01T10:30:46;3.90;99.90
14057;DHT22;7103;54.300;10.180;2023-03-01T10:33:26;4.10;99.90
14057;DHT22;7103;54.300;10.180;2023-03-01T10:35:54;4.10;99.90
14057;DHT22;7103;54.300;10.180;2023-03-01T10:38:21;4.30;99.90
14057;DHT22;7103;54.300;10.180;2023-03-01T10:40:58;4.50;99.90
14057;DHT22;7103;54.300;10.180;2023-03-01T10:43:30;4.50;99.90
14057;DHT22;7103;54.300;10.180;2023-03-01T10:45:58;4.50;99.90
14057;DHT22;7103;54.300;10.180;2023-03-01T10:48:26;4.40;99.90
14057;DHT22;7103;54.300;10.180;2023-03-01T10:51:06;4.40;99.90
14057;DHT22;7103;54.300;10.180;2023-03-01T10:53:41;4.60;99.90
14057;DHT22;7103;54.300;10.180;2023-03-01T10:56:09;4.50;99.90
14057;DHT22;7103;54.300;10.180;2023-03-01T10:58:38;4.60;99.90
14057;DHT22;7103;54.300;10.180;2023-03-01T11:03:43;4.60;96.20
14057;DHT22;7103;54.300;10.180;2023-03-01T11:08:48;4.60;74.70
14057;DHT22;7103;54.300;10.180;2023-03-01T11:11:22;4.70;79.40
14057;DHT22;7103;54.300;10.180;2023-03-01T11:14:00;4.70;75.50
14057;DHT22;7103;54.300;10.180;2023-03-01T11:16:37;4.80;83.40
14057;DHT22;7103;54.300;10.180;2023-03-01T11:22:04;5.00;60.80
14057;DHT22;7103;54.300;10.180;2023-03-01T11:24:38;5.00;34.40
14057;DHT22;7103;54.300;10.180;2023-03-01T11:27:28;4.90;4.60
14057;DHT22;7103;54.300;10.180;2023-03-01T11:32:45;4.90;1.00
14057;DHT22;7103;54.300;10.180;2023-03-01T11:35:25;4.80;1.00
14057;DHT22;7103;54.300;10.180;2023-03-01T11:41:31;4.90;1.00
14057;DHT22;7103;54.300;10.180;2023-03-01T11:52:53;4.80;1.00
14057;DHT22;7103;54.300;10.180;2023-03-01T12:01:07;5.00;1.00
14057;DHT22;7103;54.300;10.180;2023-03-01T12:09:21;5.30;1.00
14057;DHT22;7103;54.300;10.180;2023-03-01T12:12:13;5.70;1.00
14057;DHT22;7103;54.300;10.180;2023-03-01T12:20:36;5.70;1.00
14057;DHT22;7103;54.300;10.180;2023-03-01T12:23:28;5.50;1.00
14057;DHT22;7103;54.300;10.180;2023-03-01T12:32:06;5.20;1.00
14057;DHT22;7103;54.300;10.180;2023-03-01T12:34:41;5.30;1.00
14057;DHT22;7103;54.300;10.180;2023-03-01T12:40:33;5.40;1.00
14057;DHT22;7103;54.300;10.180;2023-03-01T12:46:02;5.20;1.00
14057;DHT22;7103;54.300;10.180;2023-03-01T12:51:14;5.40;1.00
14057;DHT22;7103;54.300;10.180;2023-03-01T12:53:47;5.10;1.00
14057;DHT22;7103;54.300;10.180;2023-03-01T12:56:19;5.10;1.00
14057;DHT22;7103;54.300;10.180;2023-03-01T13:04:29;5.20;1.00
14057;DHT22;7103;54.300;10.180;2023-03-01T13:17:52;5.60;1.00
14057;DHT22;7103;54.300;10.180;2023-03-01T13:20:24;5.50;1.00
14057;DHT22;7103;54.300;10.180;2023-03-01T13:26:13;5.50;1.00
14057;DHT22;7103;54.300;10.180;2023-03-01T13:28:47;5.50;1.00
14057;DHT22;7103;54.300;10.180;2023-03-01T13:38:59;5.40;1.00
14057;DHT22;7103;54.300;10.180;2023-03-01T13:44:26;5.20;1.00
14057;DHT22;7103;54.300;10.180;2023-03-01T13:49:49;5.20;1.00
14057;DHT22;7103;54.300;10.180;2023-03-01T13:54:50;4.70;1.00
14057;DHT22;7103;54.300;10.180;2023-03-01T13:57:23;4.60;1.00
14057;DHT22;7103;54.300;10.180;2023-03-01T13:59:51;4.70;1.00
14057;DHT22;7103;54.300;10.180;2023-03-01T14:02:18;4.70;1.00
14057;DHT22;7103;54.300;10.180;2023-03-01T14:04:56;4.70;1.00
14057;DHT22;7103;54.300;10.180;2023-03-01T14:07:25;4.90;1.00
14057;DHT22;7103;54.300;10.180;2023-03-01T14:10:05;4.80;1.00
14057;DHT22;7103;54.300;10.180;2023-03-01T14:13:01;4.80;1.00
14057;DHT22;7103;54.300;10.180;2023-03-01T14:16:04;4.80;1.00
14057;DHT22;7103;54.300;10.180;2023-03-01T14:19:14;4.70;1.00
14057;DHT22;7103;54.300;10.180;2023-03-01T14:22:12;4.50;1.00
14057;DHT22;7103;54.300;10.180;2023-03-01T14:24:47;4.40;1.00
14057;DHT22;7103;54.300;10.180;2023-03-01T14:27:16;4.40;1.00
14057;DHT22;7103;54.300;10.180;2023-03-01T14:29:44;4.40;1.00
14057;DHT22;7103;54.300;10.180;2023-03-01T14:32:30;4.40;1.00
14057;DHT22;7103;54.300;10.180;2023-03-01T14:34:59;4.30;1.00
14057;DHT22;7103;54.300;10.180;2023-03-01T14:37:34;4.20;1.00
14057;DHT22;7103;54.300;10.180;2023-03-01T14:40:03;4.10;1.00
14057;DHT22;7103;54.300;10.180;2023-03-01T14:42:36;4.00;1.00
14057;DHT22;7103;54.300;10.180;2023-03-01T14:45:04;4.00;1.00
14057;DHT22;7103;54.300;10.180;2023-03-01T14:47:35;3.90;1.00
14057;DHT22;7103;54.300;10.180;2023-03-01T14:52:37;3.70;1.00
14057;DHT22;7103;54.300;10.180;2023-03-01T14:55:20;3.60;1.00
14057;DHT22;7103;54.300;10.180;2023-03-01T14:57:49;3.60;1.00
14057;DHT22;7103;54.300;10.180;2023-03-01T15:00:31;3.60;1.00
14057;DHT22;7103;54.300;10.180;2023-03-01T15:03:06;3.80;1.00
14057;DHT22;7103;54.300;10.180;2023-03-01T15:05:41;3.90;1.00
14057;DHT22;7103;54.300;10.180;2023-03-01T15:08:18;3.80;1.00
14057;DHT22;7103;54.300;10.180;2023-03-01T15:13:35;3.70;2.10
14057;DHT22;7103;54.300;10.180;2023-03-01T15:16:11;3.70;17.70
14057;DHT22;7103;54.300;10.180;2023-03-01T15:18:48;3.70;28.40
14057;DHT22;7103;54.300;10.180;2023-03-01T15:21:24;3.70;29.40
14057;DHT22;7103;54.300;10.180;2023-03-01T15:24:05;3.50;27.50
14057;DHT22;7103;54.300;10.180;2023-03-01T15:26:37;3.50;50.60
14057;DHT22;7103;54.300;10.180;2023-03-01T15:29:15;3.60;64.30
14057;DHT22;7103;54.300;10.180;2023-03-01T15:34:28;3.50;81.40
14057;DHT22;7103;54.300;10.180;2023-03-01T15:36:57;3.60;90.70
14057;DHT22;7103;54.300;10.180;2023-03-01T15:42:10;3.60;94.50
14057;DHT22;7103;54.300;10.180;2023-03-01T15:44:41;3.60;99.80
14057;DHT22;7103;54.300;10.180;2023-03-01T15:47:30;3.70;99.90
14057;DHT22;7103;54.300;10.180;2023-03-01T15:49:58;3.50;99.90
14057;DHT22;7103;54.300;10.180;2023-03-01T15:52:36;3.70;99.90
14057;DHT22;7103;54.300;10.180;2023-03-01T15:55:28;3.60;99.90
14057;DHT22;7103;54.300;10.180;2023-03-01T15:58:10;3.70;99.90
14057;DHT22;7103;54.300;10.180;2023-03-01T16:00:39;3.70;99.90
14057;DHT22;7103;54.300;10.180;2023-03-01T16:03:23;3.70;99.90
14057;DHT22;7103;54.300;10.180;2023-03-01T16:05:51;3.70;99.90
14057;DHT22;7103;54.300;10.180;2023-03-01T16:08:18;3.60;99.90
14057;DHT22;7103;54.300;10.180;2023-03-01T16:10:46;3.50;99.90
14057;DHT22;7103;54.300;10.180;2023-03-01T16:13:14;3.50;99.90
14057;DHT22;7103;54.300;10.180;2023-03-01T16:15:41;3.50;99.90
14057;DHT22;7103;54.300;10.180;2023-03-01T16:18:08;3.40;99.90
14057;DHT22;7103;54.300;10.180;2023-03-01T16:20:38;3.30;99.90
14057;DHT22;7103;54.300;10.180;2023-03-01T16:23:07;3.20;99.90
14057;DHT22;7103;54.300;10.180;2023-03-01T16:25:35;3.10;99.90
14057;DHT22;7103;54.300;10.180;2023-03-01T16:28:03;3.10;99.90
14057;DHT22;7103;54.300;10.180;2023-03-01T16:30:36;3.10;99.90
14057;DHT22;7103;54.300;10.180;2023-03-01T16:33:03;3.20;99.90
14057;DHT22;7103;54.300;10.180;2023-03-01T16:35:50;3.20;99.90
14057;DHT22;7103;54.300;10.180;2023-03-01T16:38:17;3.10;99.90
14057;DHT22;7103;54.300;10.180;2023-03-01T16:40:48;3.10;99.90
14057;DHT22;7103;54.300;10.180;2023-03-01T16:43:16;3.10;99.90
14057;DHT22;7103;54.300;10.180;2023-03-01T16:45:42;3.20;99.90
14057;DHT22;7103;54.300;10.180;2023-03-01T16:48:12;3.20;99.90
14057;DHT22;7103;54.300;10.180;2023-03-01T16:50:39;3.10;99.90
14057;DHT22;7103;54.300;10.180;2023-03-01T16:53:06;3.10;99.90
14057;DHT22;7103;54.300;10.180;2023-03-01T16:55:33;3.00;99.90
14057;DHT22;7103;54.300;10.180;2023-03-01T16:58:00;3.00;99.90
14057;DHT22;7103;54.300;10.180;2023-03-01T17:00:28;3.00;99.90
14057;DHT22;7103;54.300;10.180;2023-03-01T17:02:55;2.90;99.90
14057;DHT22;7103;54.300;10.180;2023-03-01T17:05:22;3.00;99.90
14057;DHT22;7103;54.300;10.180;2023-03-01T17:07:50;3.10;99.90
14057;DHT22;7103;54.300;10.180;2023-03-01T17:10:17;2.90;99.90
14057;DHT22;7103;54.300;10.180;2023-03-01T17:12:48;2.90;99.90
14057;DHT22;7103;54.300;10.180;2023-03-01T17:15:15;2.90;99.90
14057;DHT22;7103;54.300;10.180;2023-03-01T17:17:42;2.90;99.90
14057;DHT22;7103;54.300;10.180;2023-03-01T17:20:09;3.10;99.90
14057;DHT22;7103;54.300;10.180;2023-03-01T17:22:36;3.10;99.90
14057;DHT22;7103;54.300;10.180;2023-03-01T17:25:03;3.10;99.90
14057;DHT22;7103;54.300;10.180;2023-03-01T17:27:30;2.90;99.90
14057;DHT22;7103;54.300;10.180;2023-03-01T17:30:01;3.00;99.90
14057;DHT22;7103;54.300;10.180;2023-03-01T17:32:28;3.10;99.90
14057;DHT22;7103;54.300;10.180;2023-03-01T17:34:55;3.10;99.90
14057;DHT22;7103;54.300;10.180;2023-03-01T17:37:22;3.20;99.90
14057;DHT22;7103;54.300;10.180;2023-03-01T17:39:49;3.10;99.90
14057;DHT22;7103;54.300;10.180;2023-03-01T17:42:16;3.10;99.90
14057;DHT22;7103;54.300;10.180;2023-03-01T17:44:43;3.00;99.90
14057;DHT22;7103;54.300;10.180;2023-03-01T17:47:10;3.00;99.90
14057;DHT22;7103;54.300;10.180;2023-03-01T17:49:37;3.00;99.90
14057;DHT22;7103;54.300;10.180;2023-03-01T17:52:03;3.00;99.90
14057;DHT22;7103;54.300;10.180;2023-03-01T17:54:31;3.10;99.90
14057;DHT22;7103;54.300;10.180;2023-03-01T17:56:59;3.00;99.90
14057;DHT22;7103;54.300;10.180;2023-03-01T17:59:26;3.10;99.90
14057;DHT22;7103;54.300;10.180;2023-03-01T18:01:58;3.00;99.90
14057;DHT22;7103;54.300;10.180;2023-03-01T18:04:27;3.00;99.90
14057;DHT22;7103;54.300;10.180;2023-03-01T18:06:54;3.20;99.90
14057;DHT22;7103;54.300;10.180;2023-03-01T18:09:21;3.20;99.90
14057;DHT22;7103;54.300;10.180;2023-03-01T18:11:48;3.10;99.90
14057;DHT22;7103;54.300;10.180;2023-03-01T18:14:15;3.20;99.90
14057;DHT22;7103;54.300;10.180;2023-03-01T18:16:42;3.20;99.90